createdAt,value
2022-12-13T00:01:57.860Z,1.90
2022-12-13T00:04:27.262Z,2.07
2022-12-13T00:06:56.765Z,2.00
2022-12-13T00:09:27.642Z,1.97
2022-12-13T00:11:56.807Z,1.97
2022-12-13T00:14:25.962Z,1.60
2022-12-13T00:16:55.294Z,1.50
2022-12-13T00:19:25.060Z,1.57
2022-12-13T00:21:54.519Z,1.60
2022-12-13T00:24:23.762Z,1.40
2022-12-13T00:26:56.555Z,1.40
2022-12-13T00:29:26.086Z,1.60
2022-12-13T00:32:00.465Z,2.00
2022-12-13T00:34:30.627Z,1.80
2022-12-13T00:37:04.945Z,2.00
2022-12-13T00:39:34.194Z,1.90
2022-12-13T00:42:04.842Z,2.00
2022-12-13T00:44:34.141Z,1.87
2022-12-13T00:47:03.311Z,1.70
2022-12-13T00:49:32.528Z,2.37
2022-12-13T00:52:01.666Z,2.23
2022-12-13T00:54:30.967Z,2.50
2022-12-13T00:57:00.158Z,1.87
2022-12-13T00:59:31.080Z,2.03
2022-12-13T01:02:00.545Z,2.23
2022-12-13T01:04:29.871Z,2.10
2022-12-13T01:06:59.263Z,1.60
2022-12-13T01:09:31.216Z,1.97
2022-12-13T01:12:01.036Z,1.67
2022-12-13T01:14:31.880Z,1.97
2022-12-13T01:17:01.099Z,2.17
2022-12-13T01:19:30.960Z,1.93
2022-12-13T01:22:01.197Z,2.27
2022-12-13T01:24:30.863Z,1.77
2022-12-13T01:27:00.345Z,2.07
2022-12-13T01:29:29.620Z,2.30
2022-12-13T01:32:00.246Z,2.57
2022-12-13T01:34:29.548Z,2.20
2022-12-13T01:36:59.101Z,2.47
2022-12-13T01:39:28.752Z,2.40
2022-12-13T01:42:00.168Z,2.03
2022-12-13T01:44:48.094Z,2.20
2022-12-13T01:47:20.630Z,2.30
2022-12-13T01:49:50.079Z,2.23
2022-12-13T01:52:19.941Z,2.47
2022-12-13T01:54:51.135Z,2.30
2022-12-13T01:57:21.204Z,2.50
2022-12-13T01:59:51.097Z,2.53
2022-12-13T02:02:22.052Z,2.20
2022-12-13T02:04:54.396Z,2.13
2022-12-13T02:07:26.269Z,2.53
2022-12-13T02:09:57.463Z,2.63
2022-12-13T02:12:29.641Z,2.10
2022-12-13T02:15:01.089Z,3.00
2022-12-13T02:17:44.584Z,2.23
2022-12-13T02:20:34.743Z,2.30
2022-12-13T02:23:13.339Z,2.60
2022-12-13T02:25:53.140Z,2.43
2022-12-13T02:28:34.130Z,2.10
2022-12-13T02:31:06.961Z,2.67
2022-12-13T02:33:40.877Z,2.67
2022-12-13T02:36:11.565Z,2.20
2022-12-13T02:38:48.103Z,2.53
2022-12-13T02:41:19.283Z,2.50
2022-12-13T02:43:51.511Z,2.40
2022-12-13T02:46:23.696Z,2.60
2022-12-13T02:48:54.994Z,2.27
2022-12-13T02:51:25.108Z,2.57
2022-12-13T02:53:54.323Z,2.13
2022-12-13T02:56:23.877Z,2.77
2022-12-13T02:58:54.665Z,2.10
2022-12-13T03:01:40.186Z,2.17
2022-12-13T03:04:14.314Z,2.00
2022-12-13T03:06:47.974Z,2.27
2022-12-13T03:09:24.804Z,2.73
2022-12-13T03:12:27.715Z,1.90
2022-12-13T03:15:00.830Z,1.87
2022-12-13T03:17:34.027Z,2.00
2022-12-13T03:20:12.780Z,2.30
2022-12-13T03:22:52.111Z,2.03
2022-12-13T03:25:32.035Z,1.90
2022-12-13T03:28:02.974Z,1.60
2022-12-13T03:30:32.684Z,1.73
2022-12-13T03:33:03.475Z,1.63
2022-12-13T03:35:34.311Z,1.90
2022-12-13T03:38:22.007Z,2.50
2022-12-13T03:40:54.254Z,1.83
2022-12-13T03:43:23.808Z,1.87
2022-12-13T03:45:53.324Z,1.60
2022-12-13T03:48:24.504Z,1.80
2022-12-13T03:50:54.475Z,1.80
2022-12-13T03:53:32.174Z,1.77
2022-12-13T03:56:05.238Z,1.90
2022-12-13T03:58:37.300Z,2.00
2022-12-13T04:01:08.289Z,2.10
2022-12-13T04:03:39.883Z,2.10
2022-12-13T04:06:09.635Z,2.43
2022-12-13T04:08:39.694Z,2.43
2022-12-13T04:11:23.248Z,2.20
2022-12-13T04:13:52.683Z,2.67
2022-12-13T04:16:21.877Z,2.40
2022-12-13T04:18:52.534Z,2.73
2022-12-13T04:21:21.789Z,2.97
2022-12-13T04:23:50.934Z,2.90
2022-12-13T04:26:20.443Z,2.67
2022-12-13T04:28:54.493Z,2.60
2022-12-13T04:31:24.260Z,2.53
2022-12-13T04:33:54.828Z,3.30
2022-12-13T04:36:32.292Z,3.20
2022-12-13T04:39:03.216Z,2.80
2022-12-13T04:41:37.604Z,3.40
2022-12-13T04:44:07.536Z,2.50
2022-12-13T04:47:01.323Z,3.17
2022-12-13T04:49:32.605Z,2.90
2022-12-13T04:52:02.452Z,2.53
2022-12-13T04:54:36.663Z,2.60
2022-12-13T04:57:08.105Z,2.53
2022-12-13T04:59:37.500Z,3.20
2022-12-13T05:02:07.581Z,2.70
2022-12-13T05:04:38.907Z,2.50
2022-12-13T05:07:08.163Z,3.10
2022-12-13T05:09:38.007Z,2.87
2022-12-13T05:12:21.867Z,2.33
2022-12-13T05:14:52.296Z,2.40
2022-12-13T05:17:21.536Z,2.57
2022-12-13T05:19:53.142Z,2.97
2022-12-13T05:22:22.684Z,2.50
2022-12-13T05:24:51.896Z,2.33
2022-12-13T05:27:24.748Z,2.53
2022-12-13T05:30:03.135Z,2.80
2022-12-13T05:32:42.554Z,2.70
2022-12-13T05:35:22.181Z,2.60
2022-12-13T05:37:54.340Z,3.07
2022-12-13T05:40:24.353Z,2.57
2022-12-13T05:43:00.670Z,3.10
2022-12-13T05:45:31.402Z,2.70
2022-12-13T05:48:01.620Z,2.50
2022-12-13T05:50:32.563Z,3.00
2022-12-13T05:53:02.002Z,2.27
2022-12-13T05:55:31.207Z,2.80
2022-12-13T05:58:02.057Z,3.43
2022-12-13T06:00:32.090Z,3.13
2022-12-13T06:03:02.062Z,3.40
2022-12-13T06:05:33.186Z,3.47
2022-12-13T06:08:02.580Z,2.90
2022-12-13T06:10:35.157Z,2.90
2022-12-13T06:13:31.715Z,3.83
2022-12-13T06:16:01.508Z,3.40
2022-12-13T06:18:32.283Z,3.33
2022-12-13T06:21:03.530Z,3.30
2022-12-13T06:23:33.693Z,3.50
2022-12-13T06:26:04.973Z,4.10
2022-12-13T06:28:34.552Z,3.70
2022-12-13T06:31:03.963Z,3.80
2022-12-13T06:33:35.796Z,4.93
2022-12-13T06:36:07.167Z,4.90
2022-12-13T06:38:43.525Z,4.40
2022-12-13T06:41:13.591Z,5.10
2022-12-13T06:43:44.347Z,4.03
2022-12-13T06:46:13.802Z,6.80
2022-12-13T06:48:43.976Z,6.07
2022-12-13T06:51:23.123Z,5.80
2022-12-13T06:54:02.793Z,5.30
2022-12-13T06:56:32.933Z,5.03
2022-12-13T06:59:02.438Z,4.60
2022-12-13T07:01:37.701Z,5.13
2022-12-13T07:04:29.272Z,4.70
2022-12-13T07:07:01.702Z,6.17
2022-12-13T07:09:32.171Z,7.30
2022-12-13T07:12:01.670Z,5.77
2022-12-13T07:14:40.723Z,6.10
2022-12-13T07:17:11.054Z,6.13
2022-12-13T07:19:40.514Z,6.13
2022-12-13T07:22:11.283Z,8.23
2022-12-13T07:24:40.468Z,5.77
2022-12-13T07:27:09.651Z,7.10
2022-12-13T07:29:39.635Z,6.73
2022-12-13T07:32:09.078Z,7.83
2022-12-13T07:34:38.296Z,8.20
2022-12-13T07:37:07.758Z,6.63
2022-12-13T07:40:03.232Z,8.90
2022-12-13T07:42:33.354Z,8.33
2022-12-13T07:45:02.884Z,7.30
2022-12-13T07:47:32.489Z,7.90
2022-12-13T07:50:01.983Z,6.83
2022-12-13T07:52:31.522Z,6.30
2022-12-13T07:55:02.396Z,7.17
2022-12-13T07:57:31.856Z,6.90
2022-12-13T08:00:00.997Z,8.43
2022-12-13T08:02:30.335Z,9.40
2022-12-13T08:04:59.642Z,7.00
2022-12-13T08:07:48.998Z,6.57
2022-12-13T08:10:19.833Z,10.60
2022-12-13T08:12:50.393Z,6.70
2022-12-13T08:15:19.789Z,5.90
2022-12-13T08:17:49.144Z,7.00
2022-12-13T08:20:21.963Z,8.40
2022-12-13T08:23:02.038Z,7.07
2022-12-13T08:25:33.339Z,6.60
2022-12-13T08:28:02.866Z,7.70
2022-12-13T08:30:33.354Z,9.33
2022-12-13T08:33:05.240Z,7.73
2022-12-13T08:35:35.449Z,7.83
2022-12-13T08:38:04.900Z,8.53
2022-12-13T08:40:35.722Z,8.47
2022-12-13T08:43:05.261Z,13.77
2022-12-13T08:45:35.191Z,9.60
2022-12-13T08:48:04.687Z,8.60
2022-12-13T08:50:33.997Z,9.27
2022-12-13T08:53:03.193Z,12.80
2022-12-13T08:55:32.610Z,9.70
2022-12-13T08:58:08.805Z,8.87
2022-12-13T09:00:40.992Z,10.63
2022-12-13T09:03:10.528Z,11.60
2022-12-13T09:05:40.066Z,10.67
2022-12-13T09:08:23.365Z,10.73
2022-12-13T09:11:00.502Z,11.10
2022-12-13T09:13:33.115Z,10.87
2022-12-13T09:16:14.076Z,10.33
2022-12-13T09:18:43.854Z,11.37
2022-12-13T09:21:22.409Z,10.87
2022-12-13T09:24:01.788Z,11.23
2022-12-13T09:26:38.401Z,10.37
2022-12-13T09:29:11.230Z,11.87
2022-12-13T09:31:41.383Z,10.40
2022-12-13T09:34:10.968Z,11.70
2022-12-13T09:36:40.300Z,11.60
2022-12-13T09:39:09.509Z,11.80
2022-12-13T09:41:41.057Z,11.03
2022-12-13T09:44:32.858Z,12.33
2022-12-13T09:47:13.426Z,13.13
2022-12-13T09:49:52.703Z,13.10
2022-12-13T09:52:24.525Z,13.77
2022-12-13T09:54:55.715Z,13.00
2022-12-13T09:57:31.860Z,12.83
2022-12-13T10:00:07.472Z,12.70
2022-12-13T10:02:42.300Z,11.20
2022-12-13T10:05:22.451Z,13.47
2022-12-13T10:07:55.518Z,10.70
2022-12-13T10:10:25.063Z,12.50
2022-12-13T10:12:57.061Z,12.50
2022-12-13T10:15:28.403Z,12.63
2022-12-13T10:17:57.865Z,15.73
2022-12-13T10:20:29.592Z,11.10
2022-12-13T10:25:52.116Z,12.67
2022-12-13T10:28:26.857Z,12.80
2022-12-13T10:30:58.506Z,12.50
2022-12-13T10:33:29.346Z,10.70
2022-12-13T10:36:09.599Z,11.03
2022-12-13T10:38:40.074Z,10.87
2022-12-13T10:41:29.448Z,11.37
2022-12-13T10:44:25.903Z,14.17
2022-12-13T10:47:04.078Z,13.07
2022-12-13T10:49:40.787Z,13.60
2022-12-13T10:52:31.436Z,9.30
2022-12-13T10:55:04.700Z,11.47
2022-12-13T10:57:53.775Z,11.27
2022-12-13T11:00:47.836Z,11.60
2022-12-13T11:03:43.836Z,10.50
2022-12-13T11:06:15.011Z,11.30
2022-12-13T11:08:44.550Z,11.13
2022-12-13T11:11:13.977Z,11.63
2022-12-13T11:13:46.841Z,10.70
2022-12-13T11:16:22.873Z,13.77
2022-12-13T11:18:56.288Z,18.27
2022-12-13T11:21:27.812Z,12.90
2022-12-13T11:24:01.825Z,16.83
2022-12-13T11:26:33.102Z,12.70
2022-12-13T11:29:09.259Z,13.13
2022-12-13T11:31:41.264Z,11.60
2022-12-13T11:34:17.667Z,12.37
2022-12-13T11:36:52.339Z,14.07
2022-12-13T11:39:23.383Z,12.70
2022-12-13T11:41:55.620Z,15.97
2022-12-13T11:44:28.026Z,12.50
2022-12-13T11:46:58.245Z,12.73
2022-12-13T11:49:34.641Z,13.97
2022-12-13T11:52:06.672Z,13.67
2022-12-13T11:54:40.325Z,14.77
2022-12-13T11:57:14.899Z,14.87
2022-12-13T11:59:46.960Z,13.97
2022-12-13T12:02:18.704Z,13.23
2022-12-13T12:04:56.409Z,17.10
2022-12-13T12:07:33.771Z,14.20
2022-12-13T12:10:07.444Z,14.63
2022-12-13T12:12:37.632Z,12.73
2022-12-13T12:15:15.646Z,14.80
2022-12-13T12:17:46.056Z,13.87
2022-12-13T12:20:23.771Z,14.03
2022-12-13T12:23:01.664Z,13.60
2022-12-13T12:25:33.548Z,14.67
2022-12-13T12:28:07.221Z,16.07
2022-12-13T12:30:42.137Z,15.73
2022-12-13T12:33:17.170Z,16.93
2022-12-13T12:36:06.374Z,16.07
2022-12-13T12:38:53.310Z,16.17
2022-12-13T12:41:32.107Z,15.63
2022-12-13T12:44:06.376Z,14.47
2022-12-13T12:47:08.782Z,15.57
2022-12-13T12:49:57.657Z,14.47
2022-12-13T12:52:32.556Z,20.07
2022-12-13T12:55:05.640Z,16.60
2022-12-13T12:57:40.807Z,14.23
2022-12-13T13:00:12.973Z,15.40
2022-12-13T13:02:45.418Z,15.67
2022-12-13T13:05:17.879Z,15.90
2022-12-13T13:07:51.215Z,16.30
2022-12-13T13:10:26.356Z,16.83
2022-12-13T13:13:12.552Z,18.23
2022-12-13T13:15:46.451Z,17.53
2022-12-13T13:18:30.554Z,16.30
2022-12-13T13:21:14.572Z,18.40
2022-12-13T13:23:45.843Z,17.63
2022-12-13T13:26:27.053Z,17.87
2022-12-13T13:29:27.020Z,16.20
2022-12-13T13:32:01.904Z,19.30
2022-12-13T13:34:36.158Z,17.20
2022-12-13T13:37:06.157Z,19.47
2022-12-13T13:39:57.048Z,17.73
2022-12-13T13:42:26.845Z,19.43
2022-12-13T13:45:04.672Z,17.83
2022-12-13T13:47:39.144Z,21.40
2022-12-13T13:50:26.841Z,20.17
2022-12-13T13:53:00.242Z,22.27
2022-12-13T13:55:46.180Z,21.50
2022-12-13T13:58:34.461Z,19.33
2022-12-13T14:01:23.308Z,20.63
2022-12-13T14:04:07.777Z,19.90
2022-12-13T14:07:00.961Z,21.00
2022-12-13T14:09:49.384Z,23.03
2022-12-13T14:12:45.614Z,23.07
2022-12-13T14:15:29.871Z,23.33
2022-12-13T14:18:22.857Z,22.87
2022-12-13T14:20:56.186Z,23.47
2022-12-13T14:23:35.968Z,19.30
2022-12-13T14:26:14.739Z,18.20
2022-12-13T14:28:49.773Z,17.70
2022-12-13T14:31:22.339Z,17.00
2022-12-13T14:33:54.564Z,14.93
2022-12-13T14:36:29.167Z,14.40
2022-12-13T14:39:02.740Z,14.27
2022-12-13T14:41:32.161Z,15.73
2022-12-13T14:44:16.960Z,13.80
2022-12-13T14:46:53.002Z,14.37
2022-12-13T14:49:24.452Z,16.30
2022-12-13T14:52:01.629Z,14.93
2022-12-13T14:54:33.407Z,15.13
2022-12-13T14:57:04.340Z,13.43
2022-12-13T14:59:34.675Z,14.00
2022-12-13T15:02:04.790Z,13.30
2022-12-13T15:04:38.039Z,14.63
2022-12-13T15:07:09.570Z,14.30
2022-12-13T15:09:40.912Z,14.33
2022-12-13T15:12:23.974Z,14.67
2022-12-13T15:15:00.536Z,15.00
2022-12-13T15:17:34.967Z,15.40
2022-12-13T15:20:25.023Z,14.83
2022-12-13T15:23:01.721Z,15.20
2022-12-13T15:25:36.114Z,12.50
2022-12-13T15:28:05.914Z,14.53
2022-12-13T15:30:37.361Z,13.93
2022-12-13T15:33:10.998Z,16.63
2022-12-13T15:35:40.285Z,14.30
2022-12-13T15:38:28.255Z,14.77
2022-12-13T15:41:00.856Z,15.03
2022-12-13T15:43:34.603Z,14.00
2022-12-13T15:46:04.051Z,16.47
2022-12-13T15:48:34.586Z,15.63
2022-12-13T15:51:08.111Z,15.73
2022-12-13T15:53:39.500Z,17.40
2022-12-13T15:56:27.645Z,19.30
2022-12-13T15:58:57.713Z,22.80
2022-12-13T16:01:28.161Z,18.83
2022-12-13T16:03:57.662Z,20.37
2022-12-13T16:06:28.278Z,36.00
2022-12-13T16:08:59.803Z,24.00
2022-12-13T16:11:30.389Z,19.90
2022-12-13T16:14:14.459Z,19.97
2022-12-13T16:16:55.807Z,17.20
2022-12-13T16:19:25.192Z,17.90
2022-12-13T16:21:54.557Z,17.60
2022-12-13T16:24:25.162Z,17.30
2022-12-13T16:26:54.719Z,19.37
2022-12-13T16:29:23.878Z,19.63
2022-12-13T16:31:57.084Z,22.00
2022-12-13T16:34:31.042Z,21.10
2022-12-13T16:37:00.442Z,28.80
2022-12-13T16:39:31.098Z,20.53
2022-12-13T16:42:00.478Z,17.10
2022-12-13T16:44:50.139Z,18.80
2022-12-13T16:47:24.696Z,17.37
2022-12-13T16:49:59.535Z,18.10
2022-12-13T16:52:28.755Z,20.47
2022-12-13T16:55:00.790Z,17.67
2022-12-13T16:57:30.214Z,20.53
2022-12-13T16:59:59.712Z,17.97
2022-12-13T17:02:29.369Z,18.03
2022-12-13T17:04:58.523Z,15.53
2022-12-13T17:07:27.816Z,16.70
2022-12-13T17:09:56.922Z,14.90
2022-12-13T17:12:28.069Z,16.93
2022-12-13T17:14:57.310Z,16.20
2022-12-13T17:17:26.517Z,16.50
2022-12-13T17:19:56.163Z,16.57
2022-12-13T17:22:26.006Z,16.77
2022-12-13T17:24:55.184Z,17.07
2022-12-13T17:27:24.363Z,16.07
2022-12-13T17:29:55.035Z,15.87
2022-12-13T17:32:24.225Z,16.17
2022-12-13T17:34:53.803Z,20.57
2022-12-13T17:37:23.058Z,16.27
2022-12-13T17:39:52.256Z,15.70
2022-12-13T17:42:21.543Z,16.70
2022-12-13T17:44:50.671Z,17.90
2022-12-13T17:47:21.368Z,16.63
2022-12-13T17:49:50.739Z,16.97
2022-12-13T17:52:19.814Z,17.53
2022-12-13T17:54:49.295Z,19.67
2022-12-13T17:57:18.568Z,16.60
2022-12-13T17:59:48.446Z,18.50
2022-12-13T18:02:22.934Z,16.80
2022-12-13T18:04:54.143Z,16.77
2022-12-13T18:07:23.407Z,19.60
2022-12-13T18:09:52.657Z,18.37
2022-12-13T18:12:22.012Z,18.40
2022-12-13T18:14:51.240Z,16.97
2022-12-13T18:17:20.510Z,16.07
2022-12-13T18:19:49.700Z,16.13
2022-12-13T18:22:20.494Z,17.43
2022-12-13T18:24:49.767Z,17.77
2022-12-13T18:27:19.016Z,17.23
2022-12-13T18:29:55.282Z,30.67
2022-12-13T18:32:24.997Z,17.90
2022-12-13T18:34:54.680Z,16.13
2022-12-13T18:37:26.061Z,17.40
2022-12-13T18:39:55.453Z,18.60
2022-12-13T18:42:25.001Z,18.87
2022-12-13T18:44:55.040Z,15.80
2022-12-13T18:47:24.754Z,16.63
2022-12-13T18:49:55.075Z,16.90
2022-12-13T18:52:27.217Z,17.30
2022-12-13T18:54:56.490Z,19.27
2022-12-13T18:57:26.080Z,16.63
2022-12-13T18:59:55.491Z,17.40
2022-12-13T19:02:26.365Z,20.13
2022-12-13T19:04:58.975Z,15.53
2022-12-13T19:07:29.670Z,17.07
2022-12-13T19:09:59.106Z,16.13
2022-12-13T19:12:28.374Z,14.33
2022-12-13T19:14:57.779Z,15.90
2022-12-13T19:17:26.976Z,14.60
2022-12-13T19:19:56.249Z,14.47
2022-12-13T19:22:25.732Z,14.90
2022-12-13T19:24:56.482Z,14.63
2022-12-13T19:27:25.727Z,16.27
2022-12-13T19:29:54.972Z,13.70
2022-12-13T19:32:24.367Z,12.00
2022-12-13T19:34:54.256Z,14.20
2022-12-13T19:37:23.518Z,16.70
2022-12-13T19:39:52.711Z,19.20
2022-12-13T19:42:23.421Z,14.90
2022-12-13T19:44:53.902Z,18.87
2022-12-13T19:47:23.093Z,21.07
2022-12-13T19:49:52.505Z,17.10
2022-12-13T19:52:21.695Z,15.90
2022-12-13T19:54:50.947Z,15.83
2022-12-13T19:57:20.374Z,14.47
2022-12-13T19:59:51.417Z,15.57
2022-12-13T20:02:20.630Z,15.23
2022-12-13T20:04:50.323Z,15.73
2022-12-13T20:07:20.818Z,49.93
2022-12-13T20:09:49.978Z,13.87
2022-12-13T20:12:19.281Z,15.63
2022-12-13T20:14:48.778Z,16.53
2022-12-13T20:17:19.595Z,16.97
2022-12-13T20:19:49.019Z,15.30
2022-12-13T20:22:18.324Z,14.73
2022-12-13T20:24:47.500Z,14.40
2022-12-13T20:27:17.278Z,16.40
2022-12-13T20:29:48.473Z,15.57
2022-12-13T20:32:21.100Z,16.77
2022-12-13T20:34:54.548Z,15.63
2022-12-13T20:37:27.558Z,16.43
2022-12-13T20:39:56.822Z,16.70
2022-12-13T20:42:26.232Z,16.23
2022-12-13T20:44:55.523Z,16.97
2022-12-13T20:47:26.310Z,17.50
2022-12-13T20:49:55.628Z,18.47
2022-12-13T20:52:24.797Z,15.63
2022-12-13T20:54:54.058Z,17.03
2022-12-13T20:57:23.193Z,17.20
2022-12-13T20:59:52.644Z,16.90
2022-12-13T21:02:21.813Z,17.53
2022-12-13T21:04:52.459Z,19.10
2022-12-13T21:07:42.092Z,19.53
2022-12-13T21:10:11.750Z,18.70
2022-12-13T21:12:40.893Z,18.03
2022-12-13T21:15:10.868Z,19.20
2022-12-13T21:17:39.985Z,17.20
2022-12-13T21:20:11.702Z,20.17
2022-12-13T21:22:40.925Z,21.00
2022-12-13T21:25:10.611Z,18.97
2022-12-13T21:27:40.230Z,17.00
2022-12-13T21:30:10.062Z,17.70
2022-12-13T21:32:39.531Z,17.17
2022-12-13T21:35:12.059Z,16.27
2022-12-13T21:37:41.331Z,17.20
2022-12-13T21:40:11.061Z,16.60
2022-12-13T21:42:40.352Z,17.93
2022-12-13T21:45:09.739Z,21.10
2022-12-13T21:47:39.027Z,21.00
2022-12-13T21:50:09.131Z,16.70
2022-12-13T21:52:40.632Z,14.90
2022-12-13T21:55:39.743Z,13.83
2022-12-13T21:58:19.039Z,11.77
2022-12-13T22:00:48.455Z,11.73
2022-12-13T22:03:17.713Z,12.60
2022-12-13T22:05:47.036Z,13.10
2022-12-13T22:08:17.879Z,12.83
2022-12-13T22:11:00.904Z,16.93
2022-12-13T22:13:30.130Z,11.53
2022-12-13T22:15:59.286Z,13.70
2022-12-13T22:18:29.037Z,13.67
2022-12-13T22:20:58.649Z,12.07
2022-12-13T22:23:29.641Z,13.00
2022-12-13T22:25:58.928Z,16.90
2022-12-13T22:28:31.214Z,15.60
2022-12-13T22:31:00.432Z,17.30
2022-12-13T22:33:29.620Z,19.17
2022-12-13T22:36:02.653Z,19.50
2022-12-13T22:38:33.428Z,20.70
2022-12-13T22:41:02.907Z,21.10
2022-12-13T22:43:35.248Z,21.27
2022-12-13T22:46:05.062Z,22.53
2022-12-13T22:48:34.668Z,23.07
2022-12-13T22:51:04.528Z,21.43
2022-12-13T22:53:35.267Z,22.63
2022-12-13T22:56:05.329Z,21.10
2022-12-13T22:58:34.493Z,22.00
2022-12-13T23:01:09.536Z,20.50
2022-12-13T23:03:39.313Z,19.90
2022-12-13T23:06:12.292Z,18.90
2022-12-13T23:08:45.040Z,18.53
2022-12-13T23:11:32.012Z,17.60
2022-12-13T23:14:02.316Z,16.80
2022-12-13T23:16:33.126Z,15.53
2022-12-13T23:19:32.117Z,16.57
2022-12-13T23:21:52.070Z,16.47
2022-12-13T23:24:23.805Z,16.20
2022-12-13T23:26:52.897Z,15.80
2022-12-13T23:29:22.199Z,15.43
2022-12-13T23:31:51.295Z,14.97
2022-12-13T23:34:20.536Z,13.63
2022-12-13T23:36:50.236Z,14.67
2022-12-13T23:39:19.399Z,13.80
2022-12-13T23:41:50.020Z,11.90
2022-12-13T23:44:19.320Z,11.70
2022-12-13T23:46:49.107Z,12.13
2022-12-13T23:49:18.640Z,12.10
2022-12-13T23:51:47.806Z,11.70
2022-12-13T23:54:19.745Z,11.10
2022-12-13T23:56:50.537Z,11.10
2022-12-13T23:59:20.032Z,11.67
